CheckWX is a tool to help pilots better visualize weather data.  It is not intended as a substitute for an official pre-flight weather briefing.

02:51:07 UTC

KMCJ METAR
Houston
Houston, Texas, USA
Current

16 mins ago

KMCJ 240235Z AUTO VRB04KT 10SM CLR 19/15 A3010 RMK A01
Observed
Mar-24 @ 02:35 UTC
Wind
  • Variable at 4 KTS
Visibility
10 SM
Flight Rules
VFR
Cloud Levels
  • Clear skies
Temperature
19°C / 66°F
Dewpoint
15°C / 59°F
Humidity
78%
Altimeter
30.1" Hg
Pressure
1019.32 hPa
Previous

36 mins ago

KMCJ 240215Z AUTO 00000KT 10SM CLR 19/15 A3010 RMK A01
Observed
Mar-24 @ 02:15 UTC
Visibility
10 SM
Flight Rules
VFR
Cloud Levels
  • Clear skies
Temperature
19°C / 66°F
Dewpoint
15°C / 59°F
Humidity
78%
Altimeter
30.1" Hg
Pressure
1019.32 hPa
Previous

56 mins ago

KMCJ 240155Z AUTO VRB04KT 10SM CLR 19/15 A3010 RMK A01
Observed
Mar-24 @ 01:55 UTC
Wind
  • Variable at 4 KTS
Visibility
10 SM
Flight Rules
VFR
Cloud Levels
  • Clear skies
Temperature
19°C / 66°F
Dewpoint
15°C / 59°F
Humidity
78%
Altimeter
30.1" Hg
Pressure
1019.32 hPa